Flight Track Log - Related Links

Times and Time Zones

All times are in EDT time to prevent confusion due to time zone crossing. See the CTL16 flight status page for this flight to view local times or setup timezone preferences in your user account.

Time Position Orientation Groundspeed Altitude Reporting Facility
EDT Latitude Longitude Course Direction KTS MPH feet Rate Location/Type
Wed 08:58:30 PM 39.3919 -84.5475 41° Northeast 130 150 1,900  Level Indianapolis Center
Wed 08:59:25 PM 39.4197 -84.5161 41° Northeast 148 170 2,900 941 Climbing Indianapolis Center
Wed 09:00:12 PM 39.4372 -84.4883 51° Northeast 159 183 3,500 771 Climbing Indianapolis Center
Wed 09:01:14 PM 39.4717 -84.4422 46° Northeast 152 175 4,300 732 Climbing Indianapolis Center
Wed 09:02:15 PM 39.5044 -84.3986 46° Northeast 159 183 5,000 689 Climbing Indianapolis Center
Wed 09:03:16 PM 39.5356 -84.3553 47° Northeast 163 188 5,700 590 Climbing Indianapolis Center
Wed 09:04:17 PM 39.5661 -84.3131 47° Northeast 160 184 6,200 537 Climbing Indianapolis Center
Wed 09:05:19 PM 39.5978 -84.2711 46° Northeast 161 185 6,800 341 Climbing Indianapolis Center
Wed 09:06:20 PM 39.6286 -84.2258 49° Northeast 165 190 6,900 91 Climbing Indianapolis Center
Wed 09:07:31 PM 39.6717 -84.1708 45° Northeast 183 211 7,000 49 Climbing Indianapolis Center
Wed 09:08:22 PM 39.7019 -84.1319 45° Northeast 183 211 7,000 -53 Level Indianapolis Center
Wed 09:09:24 PM 39.7392 -84.0850 44° Northeast 184 212 6,900 -49 Descending Indianapolis Center
Wed 09:10:25 PM 39.7744 -84.0358 47° Northeast 185 213 6,900 49 Level Indianapolis Center
Wed 09:11:26 PM 39.8117 -83.9889 44° Northeast 185 213 7,000  Climbing Indianapolis Center
Wed 09:12:28 PM 39.8525 -83.9467 38° Northeast 184 212 6,900 -49 Descending Indianapolis Center
Wed 09:13:29 PM 39.8978 -83.9164 27° Northeast 182 209 6,900  Level Indianapolis Center
Wed 09:14:30 PM 39.9425 -83.8872 27° Northeast 180 207 6,900  Level Indianapolis Center
Wed 09:15:31 PM 39.9858 -83.8531 31° Northeast 179 206 6,900 49 Level Indianapolis Center
Wed 09:16:33 PM 40.0294 -83.8211 29° Northeast 178 205 7,000  Climbing Indianapolis Center
Wed 09:17:34 PM 40.0731 -83.7883 30° Northeast 178 205 6,900 -49 Descending Indianapolis Center
Wed 09:18:35 PM 40.1128 -83.7414 42° Northeast 187 215 6,900 49 Level Indianapolis Center
Wed 09:19:37 PM 40.1478 -83.6861 50° Northeast 194 223 7,000 46 Climbing Indianapolis Center
Wed 09:20:46 PM 40.1953 -83.6203 47° Northeast 193 222 7,000  Level Indianapolis Center
Wed 09:21:39 PM 40.2269 -83.5728 49° Northeast 192 221 7,000  Level Indianapolis Center
Wed 09:22:47 PM 40.2658 -83.5169 48° Northeast 193 222 7,000 -49 Level Indianapolis Center
Wed 09:23:42 PM 40.2992 -83.4678 48° Northeast 192 221 6,900  Descending Indianapolis Center
Wed 09:24:43 PM 40.3372 -83.4164 46° Northeast 193 222 7,000 49 Climbing Indianapolis Center
Wed 09:25:45 PM 40.3744 -83.3633 47° Northeast 194 223 7,000  Level Indianapolis Center
Wed 09:26:46 PM 40.4147 -83.3125 44° Northeast 197 227 7,000  Level Indianapolis Center
Wed 09:27:47 PM 40.4544 -83.2631 43° Northeast 197 227 7,000  Level Indianapolis Center
Wed 09:28:49 PM 40.4939 -83.2097 46° Northeast 198 228 7,000  Level Indianapolis Center
Wed 09:29:50 PM 40.5319 -83.1539 48° Northeast 202 232 7,000  Level Indianapolis Center
Wed 09:30:51 PM 40.5700 -83.1006 47° Northeast 200 230 7,000  Level Indianapolis Center
Wed 09:31:53 PM 40.6100 -83.0486 45° Northeast 199 229 7,000  Level Indianapolis Center
Wed 09:32:54 PM 40.6450 -82.9925 51° Northeast 198 228 7,000  Level Indianapolis Center
Wed 09:33:56 PM 40.6833 -82.9383 47° Northeast 200 230 7,000  Level Indianapolis Center
Wed 09:34:57 PM 40.7203 -82.8819 49° Northeast 201 231 7,000  Level Indianapolis Center
Wed 09:35:43 PM 40.7494 -82.8389 48° Northeast 200 230 7,000  Level Cleveland Center
Wed 09:36:07 PM 40.7622 -82.8200 48° Northeast 200 230 7,000  Level Cleveland Center
Wed 09:37:08 PM 40.8031 -82.7583 49° Northeast 201 231 7,000  Level Cleveland Center
Wed 09:38:15 PM 40.8458 -82.6967 47° Northeast 201 231 7,000  Level Cleveland Center
Wed 09:39:15 PM 40.8825 -82.6428 48° Northeast 202 232 7,000  Level Cleveland Center
Wed 09:40:10 PM 40.9144 -82.5917 50° Northeast 201 231 7,000  Level Cleveland Center
Wed 09:40:58 PM 40.9467 -82.5458 47° Northeast 201 231 7,000  Level Cleveland Center
Wed 09:41:59 PM 40.9850 -82.4892 48° Northeast 201 231 7,000  Level Cleveland Center
Wed 09:43:00 PM 41.0214 -82.4353 48° Northeast 202 232 7,000  Level Cleveland Center
Wed 09:44:06 PM 41.0600 -82.3758 49° Northeast 199 229 7,000  Level Cleveland Center
Wed 09:45:01 PM 41.0961 -82.3272 45° Northeast 200 230 7,000 -365 Level Cleveland Center
Wed 09:46:01 PM 41.1344 -82.2647 51° Northeast 212 244 6,300 -496 Descending Cleveland Center
Wed 09:47:02 PM 41.1731 -82.2053 49° Northeast 217 250 6,000 -148 Descending Cleveland Center
Wed 09:48:03 PM 41.2133 -82.1481 47° Northeast 196 226 6,000  Level Cleveland Center
Wed 09:49:09 PM 41.2433 -82.0825 59° Northeast 194 223 6,000 -47 Level Cleveland Center
Wed 09:50:10 PM 41.2692 -82.0169 62° Northeast 196 226 5,900  Descending Cleveland Center
Wed 09:51:17 PM 41.3036 -81.9486 56° Northeast 194 223 6,000 -216 Climbing Cleveland Center
Wed 09:52:29 PM 41.3397 -81.8775 56° Northeast 209 241 5,400 -632 Descending Cleveland Center
Wed 09:53:30 PM 41.3739 -81.8089 56° Northeast 217 250 4,600 -738 Descending Cleveland Center
Wed 09:54:31 PM 41.4161 -81.7544 44° Northeast 199 229 3,900 -744 Descending Cleveland Center
Wed 09:55:31 PM 41.4583 -81.7108 38° Northeast 181 208 3,100 -843 Descending Cleveland Center
Wed 09:56:32 PM 41.4961 -81.6753 35° Northeast 172 198 2,200 -793 Descending Cleveland Center
Wed 09:57:32 PM 41.5194 -81.6425 46° Northeast 125 144 1,500 -700 Descending Cleveland Center
Wed 09:59:00 PM 41.5167 -81.6667 48° Northeast  Level FlightAware Approximate
Wed 10:06:00 PM 41.5175 -81.6833 48° Northeast  Level Estimated

Login

Don't have an account? Register now (free) for customized features, flight alerts, and more!